createdAt,value
2022-08-07T00:00:26.337Z,62.40
2022-08-07T00:03:05.673Z,62.25
2022-08-07T00:05:37.079Z,62.44
2022-08-07T00:08:05.325Z,62.13
2022-08-07T00:10:35.754Z,62.75
2022-08-07T00:13:23.749Z,63.35
2022-08-07T00:15:53.209Z,63.35
2022-08-07T00:18:24.383Z,64.13
2022-08-07T00:20:54.405Z,64.84
2022-08-07T00:23:21.706Z,64.47
2022-08-07T00:25:58.929Z,63.53
2022-08-07T00:28:33.199Z,63.19
2022-08-07T00:31:12.627Z,62.99
2022-08-07T00:33:43.485Z,63.86
2022-08-07T00:36:14.731Z,64.51
2022-08-07T00:38:44.909Z,64.76
2022-08-07T00:41:14.782Z,63.91
2022-08-07T00:44:01.685Z,64.17
2022-08-07T00:46:31.068Z,64.47
2022-08-07T00:49:03.542Z,64.06
2022-08-07T00:51:57.348Z,63.86
2022-08-07T00:54:19.683Z,63.79
2022-08-07T00:56:49.966Z,63.87
2022-08-07T00:59:35.394Z,64.23
2022-08-07T01:02:08.965Z,64.87
2022-08-07T01:04:58.387Z,65.03
2022-08-07T01:07:29.226Z,65.30
2022-08-07T01:10:06.642Z,65.41
2022-08-07T01:12:53.440Z,66.34
2022-08-07T01:15:35.745Z,67.48
2022-08-07T01:18:11.284Z,67.17
2022-08-07T01:21:26.072Z,67.14
2022-08-07T01:23:57.608Z,67.11
2022-08-07T01:26:26.291Z,66.75
2022-08-07T01:28:55.109Z,67.05
2022-08-07T01:31:42.370Z,67.28
2022-08-07T01:34:13.975Z,67.24
2022-08-07T01:36:44.179Z,66.70
2022-08-07T01:39:16.466Z,67.10
2022-08-07T01:42:07.359Z,67.50
2022-08-07T01:44:36.963Z,67.59
2022-08-07T01:48:16.975Z,66.78
2022-08-07T01:49:53.649Z,67.11
2022-08-07T01:52:26.595Z,67.20
2022-08-07T01:54:56.082Z,67.87
2022-08-07T01:57:33.771Z,67.66
2022-08-07T02:00:20.617Z,67.99
2022-08-07T02:03:12.366Z,67.67
2022-08-07T02:06:08.834Z,67.91
2022-08-07T02:08:54.342Z,68.64
2022-08-07T02:11:31.129Z,68.57
2022-08-07T02:14:36.348Z,68.19
2022-08-07T02:17:04.149Z,67.51
2022-08-07T02:20:04.966Z,66.85
2022-08-07T02:22:25.896Z,66.91
2022-08-07T02:24:55.750Z,67.32
2022-08-07T02:27:24.669Z,67.43
2022-08-07T02:29:55.084Z,67.18
2022-08-07T02:32:29.953Z,67.16
2022-08-07T02:35:01.016Z,67.31
2022-08-07T02:37:35.889Z,67.44
2022-08-07T02:40:11.914Z,68.34
2022-08-07T02:42:57.502Z,69.08
2022-08-07T02:45:58.082Z,69.32
2022-08-07T02:48:17.276Z,68.80
2022-08-07T02:50:50.503Z,68.39
2022-08-07T02:53:33.945Z,68.89
2022-08-07T02:56:20.973Z,69.50
2022-08-07T02:58:55.201Z,70.03
2022-08-07T03:01:35.291Z,70.27
2022-08-07T03:04:12.522Z,70.37
2022-08-07T03:06:44.722Z,70.70
2022-08-07T03:09:14.159Z,70.90
2022-08-07T03:11:52.287Z,71.16
2022-08-07T03:14:28.237Z,71.13
2022-08-07T03:16:56.733Z,70.79
2022-08-07T03:19:24.886Z,70.91
2022-08-07T03:21:56.952Z,70.48
2022-08-07T03:24:28.071Z,69.75
2022-08-07T03:27:02.126Z,69.53
2022-08-07T03:29:46.056Z,69.30
2022-08-07T03:32:35.660Z,69.35
2022-08-07T03:35:17.854Z,69.74
2022-08-07T03:37:55.173Z,68.95
2022-08-07T03:40:31.179Z,68.78
2022-08-07T03:43:10.022Z,69.54
2022-08-07T03:45:47.836Z,69.13
2022-08-07T03:48:19.578Z,69.23
2022-08-07T03:50:56.169Z,68.84
2022-08-07T03:53:30.246Z,69.28
2022-08-07T03:56:33.041Z,69.57
2022-08-07T03:59:13.104Z,70.14
2022-08-07T04:01:46.694Z,70.25
2022-08-07T04:04:17.848Z,69.70
2022-08-07T04:06:50.932Z,69.44
2022-08-07T04:09:23.456Z,69.28
2022-08-07T04:12:23.946Z,69.52
2022-08-07T04:14:46.110Z,69.23
2022-08-07T04:18:56.930Z,69.21
2022-08-07T04:20:09.712Z,68.74
2022-08-07T04:22:37.788Z,69.13
2022-08-07T04:25:11.776Z,69.26
2022-08-07T04:27:44.179Z,69.37
2022-08-07T04:30:21.021Z,69.17
2022-08-07T04:33:09.342Z,68.77
2022-08-07T04:35:39.291Z,68.67
2022-08-07T04:38:11.451Z,69.01
2022-08-07T04:40:52.089Z,69.03
2022-08-07T04:44:10.111Z,69.20
2022-08-07T04:46:51.345Z,69.31
2022-08-07T04:49:30.297Z,69.25
2022-08-07T04:52:19.354Z,69.16
2022-08-07T04:54:52.863Z,68.85
2022-08-07T04:58:13.161Z,68.55
2022-08-07T05:00:38.469Z,68.14
2022-08-07T05:04:07.272Z,67.74
2022-08-07T05:06:20.274Z,67.55
2022-08-07T05:09:10.346Z,67.32
2022-08-07T05:11:57.086Z,67.34
2022-08-07T05:14:55.449Z,67.18
2022-08-07T05:17:50.293Z,67.00
2022-08-07T05:20:24.685Z,67.32
2022-08-07T05:22:59.825Z,67.06
2022-08-07T05:26:11.142Z,67.12
2022-08-07T05:28:22.737Z,67.09
2022-08-07T05:30:55.001Z,66.60
2022-08-07T05:33:26.856Z,66.56
2022-08-07T05:35:56.546Z,66.57
2022-08-07T05:38:58.406Z,66.50
2022-08-07T05:41:16.783Z,66.58
2022-08-07T05:44:11.755Z,67.02
2022-08-07T05:46:38.008Z,66.62
2022-08-07T05:49:11.847Z,66.25
2022-08-07T05:51:46.285Z,65.66
2022-08-07T05:54:31.007Z,65.76
2022-08-07T05:57:00.622Z,65.56
2022-08-07T05:59:47.243Z,65.37
2022-08-07T06:02:28.432Z,65.25
2022-08-07T06:05:03.544Z,65.36
2022-08-07T06:08:30.436Z,65.00
2022-08-07T06:10:22.564Z,64.29
2022-08-07T06:12:50.218Z,63.55
2022-08-07T06:15:19.952Z,63.30
2022-08-07T06:17:53.829Z,63.41
2022-08-07T06:20:32.066Z,63.05
2022-08-07T06:23:46.161Z,62.31
2022-08-07T06:26:00.453Z,60.82
2022-08-07T06:28:28.598Z,59.44
2022-08-07T06:30:58.280Z,58.58
2022-08-07T06:33:27.218Z,57.15
2022-08-07T06:36:11.843Z,56.00
2022-08-07T06:38:59.516Z,55.77
2022-08-07T06:42:03.572Z,55.18
2022-08-07T06:45:06.752Z,54.27
2022-08-07T06:47:48.228Z,54.14
2022-08-07T06:50:30.465Z,53.19
2022-08-07T06:53:00.345Z,52.13
2022-08-07T06:55:47.919Z,51.38
2022-08-07T06:58:27.393Z,49.81
2022-08-07T07:01:06.775Z,49.33
2022-08-07T07:03:47.449Z,48.69
2022-08-07T07:06:23.898Z,47.52
2022-08-07T07:08:53.168Z,46.93
2022-08-07T07:12:09.622Z,47.29
2022-08-07T07:14:09.923Z,45.93
2022-08-07T07:16:50.780Z,46.22
2022-08-07T07:19:55.362Z,44.93
2022-08-07T07:22:36.262Z,45.55
2022-08-07T07:26:31.400Z,45.92
2022-08-07T07:28:29.829Z,46.11
2022-08-07T07:31:07.136Z,46.30
2022-08-07T07:33:35.826Z,45.07
2022-08-07T07:36:13.413Z,44.76
2022-08-07T07:38:46.172Z,44.53
2022-08-07T07:41:16.054Z,44.17
2022-08-07T07:44:14.262Z,44.54
2022-08-07T07:46:53.941Z,44.80
2022-08-07T07:50:34.368Z,44.82
2022-08-07T07:52:15.818Z,44.60
2022-08-07T07:54:51.500Z,45.16
2022-08-07T07:57:53.439Z,45.12
2022-08-07T08:00:14.979Z,45.83
2022-08-07T08:03:05.392Z,45.65
2022-08-07T08:05:54.207Z,45.47
2022-08-07T08:08:35.112Z,46.67
2022-08-07T08:11:05.953Z,46.26
2022-08-07T08:13:53.156Z,45.95
2022-08-07T08:16:39.260Z,45.99
2022-08-07T08:20:16.366Z,45.93
2022-08-07T08:22:18.902Z,46.14
2022-08-07T08:25:18.718Z,45.97
2022-08-07T08:28:01.711Z,45.98
2022-08-07T08:30:35.062Z,46.01
2022-08-07T08:33:18.476Z,45.62
2022-08-07T08:35:50.930Z,45.86
2022-08-07T08:38:25.901Z,44.50
2022-08-07T08:41:15.977Z,45.10
2022-08-07T08:44:15.293Z,45.26
2022-08-07T08:47:12.544Z,45.38
2022-08-07T08:50:02.453Z,44.56
2022-08-07T08:52:55.818Z,44.27
2022-08-07T08:55:55.556Z,44.23
2022-08-07T08:58:39.046Z,44.11
2022-08-07T09:01:18.664Z,43.79
2022-08-07T09:04:07.224Z,42.98
2022-08-07T09:07:05.438Z,41.59
2022-08-07T09:10:07.379Z,40.98
2022-08-07T09:12:53.444Z,40.17
2022-08-07T09:16:24.533Z,39.68
2022-08-07T09:18:41.045Z,39.78
2022-08-07T09:21:33.766Z,39.67
2022-08-07T09:24:30.860Z,38.40
2022-08-07T09:27:22.574Z,38.22
2022-08-07T09:30:08.274Z,38.35
2022-08-07T09:32:47.890Z,38.45
2022-08-07T09:36:04.710Z,37.23
2022-08-07T09:38:58.958Z,37.41
2022-08-07T09:42:12.837Z,37.20
2022-08-07T09:47:37.203Z,35.67
2022-08-07T09:48:08.823Z,35.75
2022-08-07T09:50:53.890Z,35.42
2022-08-07T09:53:22.869Z,35.64
2022-08-07T09:56:37.201Z,35.65
2022-08-07T09:59:46.441Z,35.44
2022-08-07T10:03:08.097Z,35.31
2022-08-07T10:06:00.895Z,36.73
2022-08-07T10:08:32.434Z,37.20
2022-08-07T10:11:17.255Z,36.67
2022-08-07T10:14:47.437Z,36.54
2022-08-07T10:18:09.448Z,36.85
2022-08-07T10:20:41.825Z,37.05
2022-08-07T10:24:05.694Z,37.24
2022-08-07T10:26:53.118Z,36.74
2022-08-07T10:29:51.446Z,36.60
2022-08-07T10:32:53.286Z,36.85
2022-08-07T10:35:55.527Z,37.04
2022-08-07T10:38:49.942Z,36.55
2022-08-07T10:41:51.349Z,36.60
2022-08-07T10:44:39.151Z,36.11
2022-08-07T10:47:27.010Z,36.67
2022-08-07T10:50:25.683Z,36.51
2022-08-07T10:52:58.964Z,35.67
2022-08-07T10:55:53.293Z,34.76
2022-08-07T10:58:49.646Z,34.41
2022-08-07T11:01:35.198Z,34.13
2022-08-07T11:04:31.429Z,33.88
2022-08-07T11:07:15.058Z,33.52
2022-08-07T11:10:06.976Z,32.80
2022-08-07T11:12:44.996Z,32.73
2022-08-07T11:15:26.366Z,32.95
2022-08-07T11:18:12.508Z,32.70
2022-08-07T11:20:42.998Z,32.96
2022-08-07T11:23:39.230Z,33.36
2022-08-07T11:26:43.462Z,33.65
2022-08-07T11:29:43.596Z,33.81
2022-08-07T11:32:25.292Z,33.51
2022-08-07T11:35:27.597Z,33.63
2022-08-07T11:38:12.889Z,33.50
2022-08-07T11:41:10.713Z,33.91
2022-08-07T11:44:11.932Z,33.51
2022-08-07T11:46:48.673Z,33.45
2022-08-07T11:50:18.820Z,32.93
2022-08-07T11:52:28.996Z,32.94
2022-08-07T11:56:09.594Z,33.03
2022-08-07T11:58:39.946Z,33.02
2022-08-07T12:02:00.791Z,33.30
2022-08-07T12:04:34.218Z,34.30
2022-08-07T12:07:10.140Z,35.34
2022-08-07T12:09:59.394Z,36.27
2022-08-07T12:12:40.939Z,36.22
2022-08-07T12:15:17.430Z,36.26
2022-08-07T12:18:22.119Z,36.11
2022-08-07T12:22:36.543Z,36.51
2022-08-07T12:24:40.297Z,36.73
2022-08-07T12:27:16.687Z,36.89
2022-08-07T12:30:05.158Z,37.02
2022-08-07T12:32:41.619Z,38.62
2022-08-07T12:35:13.190Z,39.60
2022-08-07T12:38:11.205Z,40.49
2022-08-07T12:40:50.561Z,40.81
2022-08-07T12:44:02.284Z,41.21
2022-08-07T12:46:32.825Z,41.17
2022-08-07T12:49:25.367Z,40.95
2022-08-07T12:52:13.680Z,40.55
2022-08-07T12:55:05.377Z,40.68
2022-08-07T12:58:00.426Z,40.84
2022-08-07T13:01:05.175Z,40.86
2022-08-07T13:04:06.107Z,40.23
2022-08-07T13:07:00.901Z,40.49
2022-08-07T13:10:21.531Z,41.13
2022-08-07T13:12:37.144Z,41.40
2022-08-07T13:15:23.672Z,43.99
2022-08-07T13:18:01.914Z,45.36
2022-08-07T13:20:31.933Z,45.58
2022-08-07T13:24:00.788Z,46.25
2022-08-07T13:26:18.410Z,46.40
2022-08-07T13:29:01.421Z,46.50
2022-08-07T13:31:46.029Z,46.40
2022-08-07T13:34:50.809Z,46.00
2022-08-07T13:38:12.306Z,46.14
2022-08-07T13:40:52.596Z,46.26
2022-08-07T13:43:22.510Z,46.52
2022-08-07T13:46:16.407Z,46.55
2022-08-07T13:48:58.298Z,46.84
2022-08-07T13:52:04.756Z,47.22
2022-08-07T13:54:23.566Z,47.64
2022-08-07T13:56:59.811Z,47.32
2022-08-07T13:59:34.502Z,47.30
2022-08-07T14:02:12.859Z,46.56
2022-08-07T14:04:54.741Z,46.06
2022-08-07T14:07:27.395Z,45.46
2022-08-07T14:10:01.491Z,45.98
2022-08-07T14:12:55.592Z,46.91
2022-08-07T14:15:51.157Z,47.18
2022-08-07T14:18:29.610Z,48.67
2022-08-07T14:21:08.228Z,49.81
2022-08-07T14:23:59.957Z,49.99
2022-08-07T14:26:55.311Z,50.45
2022-08-07T14:30:08.228Z,51.21
2022-08-07T14:32:26.237Z,50.87
2022-08-07T14:34:54.993Z,51.42
2022-08-07T14:37:36.319Z,51.38
2022-08-07T14:40:17.991Z,51.31
2022-08-07T14:45:56.339Z,51.95
2022-08-07T14:48:30.274Z,51.65
2022-08-07T14:51:06.722Z,52.03
2022-08-07T14:54:05.423Z,51.79
2022-08-07T14:56:33.279Z,52.21
2022-08-07T14:59:14.138Z,51.93
2022-08-07T15:02:32.119Z,52.59
2022-08-07T15:07:52.244Z,52.66
2022-08-07T15:13:19.693Z,52.54
2022-08-07T15:15:52.554Z,52.62
2022-08-07T15:18:34.855Z,52.86
2022-08-07T15:21:07.991Z,52.78
2022-08-07T15:25:02.602Z,52.84
2022-08-07T15:26:38.118Z,52.53
2022-08-07T15:30:06.373Z,52.31
2022-08-07T15:32:02.894Z,52.00
2022-08-07T15:34:37.565Z,52.04
2022-08-07T15:37:27.830Z,51.73
2022-08-07T15:39:58.349Z,51.59
2022-08-07T15:42:43.905Z,50.57
2022-08-07T15:45:19.312Z,50.07
2022-08-07T15:48:00.950Z,49.89
2022-08-07T15:51:01.261Z,49.73
2022-08-07T15:53:42.190Z,49.72
2022-08-07T15:56:17.175Z,49.86
2022-08-07T15:58:43.792Z,50.05
2022-08-07T16:01:38.483Z,50.12
2022-08-07T16:04:15.075Z,50.35
2022-08-07T16:06:43.887Z,51.55
2022-08-07T16:09:22.644Z,52.93
2022-08-07T16:12:25.063Z,53.63
2022-08-07T16:15:05.613Z,53.41
2022-08-07T16:18:09.097Z,54.88
2022-08-07T16:21:53.453Z,55.02
2022-08-07T16:23:58.329Z,54.19
2022-08-07T16:26:30.906Z,54.59
2022-08-07T16:30:10.920Z,54.56
2022-08-07T16:32:25.520Z,54.42
2022-08-07T16:35:51.971Z,54.58
2022-08-07T16:38:44.380Z,54.50
2022-08-07T16:41:14.256Z,54.60
2022-08-07T16:44:40.231Z,54.38
2022-08-07T16:47:51.113Z,54.17
2022-08-07T16:50:36.261Z,53.97
2022-08-07T16:54:02.639Z,53.84
2022-08-07T16:56:19.120Z,53.35
2022-08-07T16:59:11.364Z,53.22
2022-08-07T17:02:48.709Z,52.75
2022-08-07T17:06:01.719Z,53.28
2022-08-07T17:08:05.726Z,52.96
2022-08-07T17:10:54.851Z,53.01
2022-08-07T17:14:17.433Z,53.06
2022-08-07T17:16:44.194Z,53.18
2022-08-07T17:20:01.979Z,53.60
2022-08-07T17:22:30.139Z,53.74
2022-08-07T17:25:08.157Z,53.96
2022-08-07T17:28:19.530Z,54.19
2022-08-07T17:30:58.485Z,54.72
2022-08-07T17:34:10.123Z,54.55
2022-08-07T17:36:26.472Z,54.84
2022-08-07T17:39:17.180Z,54.78
2022-08-07T17:42:01.628Z,54.67
2022-08-07T17:45:17.589Z,54.21
2022-08-07T17:48:01.441Z,54.24
2022-08-07T17:50:56.938Z,54.91
2022-08-07T17:54:01.956Z,54.97
2022-08-07T17:56:32.512Z,55.16
2022-08-07T17:59:09.061Z,55.52
2022-08-07T18:01:38.969Z,55.64
2022-08-07T18:04:31.005Z,56.01
2022-08-07T18:07:34.338Z,56.30
2022-08-07T18:10:32.671Z,56.71
2022-08-07T18:13:00.684Z,56.97
2022-08-07T18:15:53.447Z,57.14
2022-08-07T18:19:02.397Z,57.48
2022-08-07T18:21:51.670Z,58.21
2022-08-07T18:24:37.048Z,57.96
2022-08-07T18:27:23.565Z,57.73
2022-08-07T18:30:31.764Z,57.67
2022-08-07T18:33:15.353Z,58.02
2022-08-07T18:36:06.067Z,58.22
2022-08-07T18:38:58.566Z,59.00
2022-08-07T18:41:45.790Z,58.87
2022-08-07T18:44:22.221Z,58.19
2022-08-07T18:47:11.289Z,59.11
2022-08-07T18:50:40.742Z,59.16
2022-08-07T18:53:12.657Z,60.13
2022-08-07T18:55:57.199Z,59.32
2022-08-07T18:58:51.218Z,59.85
2022-08-07T19:02:31.922Z,60.74
2022-08-07T19:04:54.686Z,61.15
2022-08-07T19:07:51.929Z,62.55
2022-08-07T19:10:51.554Z,61.65
2022-08-07T19:13:21.660Z,62.52
2022-08-07T19:17:04.320Z,62.79
2022-08-07T19:19:53.288Z,62.96
2022-08-07T19:22:33.637Z,63.47
2022-08-07T19:25:06.897Z,63.13
2022-08-07T19:28:58.223Z,63.09
2022-08-07T19:31:00.694Z,62.89
2022-08-07T19:33:34.953Z,62.02
2022-08-07T19:36:05.131Z,63.00
2022-08-07T19:38:52.588Z,62.90
2022-08-07T19:41:39.316Z,63.03
2022-08-07T19:44:22.010Z,62.89
2022-08-07T19:46:57.868Z,62.54
2022-08-07T19:49:57.396Z,62.69
2022-08-07T19:52:19.188Z,62.66
2022-08-07T19:54:56.337Z,62.82
2022-08-07T19:58:04.683Z,62.74
2022-08-07T20:00:29.458Z,62.59
2022-08-07T20:03:02.706Z,62.85
2022-08-07T20:05:47.504Z,63.09
2022-08-07T20:08:24.001Z,62.42
2022-08-07T20:11:02.161Z,62.87
2022-08-07T20:13:37.826Z,62.96
2022-08-07T20:16:15.808Z,63.54
2022-08-07T20:19:04.536Z,64.05
2022-08-07T20:21:41.783Z,64.23
2022-08-07T20:24:28.851Z,64.36
2022-08-07T20:27:01.882Z,64.32
2022-08-07T20:29:49.402Z,64.46
2022-08-07T20:32:27.485Z,64.94
2022-08-07T20:35:26.469Z,63.87
2022-08-07T20:37:59.059Z,63.91
2022-08-07T20:40:34.621Z,63.89
2022-08-07T20:43:14.494Z,63.68
2022-08-07T20:46:25.746Z,63.79
2022-08-07T20:48:39.592Z,63.44
2022-08-07T20:51:28.086Z,62.86
2022-08-07T20:54:09.276Z,62.85
2022-08-07T20:56:41.920Z,62.80
2022-08-07T21:00:04.926Z,62.49
2022-08-07T21:02:32.305Z,62.32
2022-08-07T21:05:01.485Z,61.61
2022-08-07T21:07:33.445Z,61.20
2022-08-07T21:10:03.777Z,60.97
2022-08-07T21:12:34.332Z,60.44
2022-08-07T21:15:06.769Z,60.45
2022-08-07T21:18:02.033Z,60.40
2022-08-07T21:20:30.161Z,60.40
2022-08-07T21:23:15.402Z,60.63
2022-08-07T21:26:26.861Z,60.36
2022-08-07T21:29:05.766Z,60.34
2022-08-07T21:32:46.823Z,59.88
2022-08-07T21:35:05.864Z,59.54
2022-08-07T21:37:58.064Z,59.62
2022-08-07T21:40:53.307Z,59.31
2022-08-07T21:43:36.512Z,59.04
2022-08-07T21:46:41.634Z,58.84
2022-08-07T21:49:26.801Z,58.51
2022-08-07T21:52:09.075Z,58.54
2022-08-07T21:55:10.283Z,58.81
2022-08-07T21:57:52.318Z,59.13
2022-08-07T22:00:24.868Z,59.51
2022-08-07T22:02:54.916Z,59.49
2022-08-07T22:05:45.807Z,59.40
2022-08-07T22:08:18.823Z,60.25
2022-08-07T22:10:54.830Z,61.68
2022-08-07T22:13:50.332Z,61.46
2022-08-07T22:16:43.410Z,61.79
2022-08-07T22:19:23.873Z,63.21
2022-08-07T22:22:17.762Z,63.07
2022-08-07T22:25:10.714Z,62.73
2022-08-07T22:28:29.634Z,63.77
2022-08-07T22:30:40.108Z,64.84
2022-08-07T22:33:12.453Z,65.28
2022-08-07T22:35:58.172Z,65.32
2022-08-07T22:38:37.431Z,65.88
2022-08-07T22:41:19.954Z,65.72
2022-08-07T22:43:56.126Z,65.97
2022-08-07T22:47:02.808Z,65.92
2022-08-07T22:49:18.872Z,65.88
2022-08-07T22:51:55.153Z,65.22
2022-08-07T22:54:48.906Z,64.96
2022-08-07T22:57:44.327Z,65.82
2022-08-07T23:00:12.520Z,66.13
2022-08-07T23:03:09.142Z,66.62
2022-08-07T23:06:07.757Z,66.34
2022-08-07T23:10:00.760Z,65.79
2022-08-07T23:12:05.798Z,66.24
2022-08-07T23:14:47.563Z,65.85
2022-08-07T23:17:29.664Z,65.90
2022-08-07T23:20:51.605Z,66.41
2022-08-07T23:24:06.589Z,67.15
2022-08-07T23:27:06.043Z,67.73
2022-08-07T23:30:39.683Z,67.73
2022-08-07T23:34:21.611Z,67.78
2022-08-07T23:36:30.094Z,67.58
2022-08-07T23:39:08.558Z,67.73
2022-08-07T23:41:47.711Z,67.78
2022-08-07T23:44:45.222Z,67.82
2022-08-07T23:47:30.272Z,67.47
2022-08-07T23:50:40.404Z,67.76
2022-08-07T23:53:19.600Z,68.04
2022-08-07T23:56:03.615Z,68.24
2022-08-07T23:58:43.906Z,68.30
